createdAt,value
2022-10-17T00:02:26.399Z,6.18
2022-10-17T00:04:52.869Z,6.03
2022-10-17T00:07:19.399Z,5.07
2022-10-17T00:09:45.866Z,6.25
2022-10-17T00:12:12.338Z,4.60
2022-10-17T00:14:39.161Z,4.72
2022-10-17T00:17:06.202Z,4.85
2022-10-17T00:19:32.758Z,5.30
2022-10-17T00:21:59.327Z,5.43
2022-10-17T00:24:25.945Z,4.15
2022-10-17T00:26:52.415Z,3.65
2022-10-17T00:29:18.983Z,6.05
2022-10-17T00:31:45.612Z,5.35
2022-10-17T00:34:13.023Z,5.15
2022-10-17T00:36:39.594Z,5.80
2022-10-17T00:39:06.068Z,5.30
2022-10-17T00:41:33.878Z,4.97
2022-10-17T00:44:06.470Z,3.70
2022-10-17T00:46:38.172Z,5.50
2022-10-17T00:49:13.616Z,5.50
2022-10-17T00:52:01.180Z,5.10
2022-10-17T00:54:33.885Z,5.43
2022-10-17T00:57:01.674Z,4.20
2022-10-17T00:59:29.417Z,4.00
2022-10-17T01:02:08.498Z,4.40
2022-10-17T01:04:37.167Z,5.95
2022-10-17T01:07:03.694Z,6.13
2022-10-17T01:09:30.615Z,5.45
2022-10-17T01:12:11.038Z,6.32
2022-10-17T01:14:47.937Z,4.63
2022-10-17T01:17:25.518Z,5.07
2022-10-17T01:20:43.424Z,4.07
2022-10-17T01:23:54.139Z,5.95
2022-10-17T01:26:39.071Z,5.63
2022-10-17T01:29:13.080Z,5.30
2022-10-17T01:32:02.132Z,4.90
2022-10-17T01:34:35.148Z,4.65
2022-10-17T01:37:13.131Z,6.13
2022-10-17T01:39:45.660Z,3.72
2022-10-17T01:42:18.843Z,5.10
2022-10-17T01:44:56.249Z,6.03
2022-10-17T01:47:27.979Z,4.85
2022-10-17T01:49:58.274Z,4.53
2022-10-17T01:52:51.143Z,5.20
2022-10-17T01:55:23.647Z,5.50
2022-10-17T01:57:54.632Z,5.13
2022-10-17T02:00:23.772Z,4.22
2022-10-17T02:02:55.118Z,3.85
2022-10-17T02:05:26.401Z,4.45
2022-10-17T02:07:52.899Z,4.27
2022-10-17T02:10:36.018Z,4.85
2022-10-17T02:13:22.686Z,4.22
2022-10-17T02:16:04.383Z,5.75
2022-10-17T02:18:38.698Z,6.32
2022-10-17T02:21:24.520Z,4.03
2022-10-17T02:24:05.971Z,7.30
2022-10-17T02:26:41.155Z,6.75
2022-10-17T02:29:19.214Z,3.65
2022-10-17T02:32:12.071Z,7.03
2022-10-17T02:34:49.158Z,6.95
2022-10-17T02:37:19.676Z,5.63
2022-10-17T02:39:47.504Z,6.63
2022-10-17T02:42:15.285Z,5.47
2022-10-17T02:44:44.674Z,5.22
2022-10-17T02:47:26.008Z,5.53
2022-10-17T02:49:55.571Z,5.45
2022-10-17T02:52:25.069Z,6.28
2022-10-17T02:54:57.847Z,5.35
2022-10-17T02:57:31.089Z,6.13
2022-10-17T03:00:00.856Z,4.05
2022-10-17T03:02:28.269Z,5.05
2022-10-17T03:04:55.109Z,4.13
2022-10-17T03:07:21.617Z,4.80
2022-10-17T03:09:48.080Z,5.60
2022-10-17T03:12:14.608Z,6.35
2022-10-17T03:14:41.086Z,4.82
2022-10-17T03:17:07.549Z,5.63
2022-10-17T03:19:34.068Z,4.68
2022-10-17T03:22:00.547Z,4.50
2022-10-17T03:24:27.039Z,3.92
2022-10-17T03:26:53.560Z,5.47
2022-10-17T03:29:20.043Z,5.78
2022-10-17T03:31:46.742Z,5.68
2022-10-17T03:34:13.256Z,4.78
2022-10-17T03:36:39.707Z,4.07
2022-10-17T03:39:06.239Z,4.35
2022-10-17T03:41:32.779Z,3.92
2022-10-17T03:43:59.257Z,4.18
2022-10-17T03:46:25.731Z,4.78
2022-10-17T03:48:52.412Z,3.38
2022-10-17T03:51:19.134Z,3.92
2022-10-17T03:53:45.596Z,5.13
2022-10-17T03:56:23.682Z,4.95
2022-10-17T03:58:50.287Z,5.05
2022-10-17T04:01:18.961Z,5.40
2022-10-17T04:03:51.699Z,3.42
2022-10-17T04:06:18.967Z,2.97
2022-10-17T04:08:45.766Z,6.50
2022-10-17T04:11:16.148Z,6.13
2022-10-17T04:13:43.668Z,5.88
2022-10-17T04:16:17.149Z,6.38
2022-10-17T04:18:44.417Z,4.88
2022-10-17T04:21:11.836Z,5.95
2022-10-17T04:23:38.876Z,5.75
2022-10-17T04:26:06.815Z,6.43
2022-10-17T04:28:34.141Z,6.45
2022-10-17T04:31:06.478Z,6.90
2022-10-17T04:33:34.150Z,4.68
2022-10-17T04:36:01.555Z,4.55
2022-10-17T04:38:29.655Z,5.55
2022-10-17T04:41:00.801Z,5.45
2022-10-17T04:43:27.276Z,5.50
2022-10-17T04:45:53.753Z,3.78
2022-10-17T04:48:20.517Z,6.60
2022-10-17T04:51:00.378Z,6.20
2022-10-17T04:53:27.948Z,5.22
2022-10-17T04:55:54.658Z,4.82
2022-10-17T04:58:22.166Z,5.78
2022-10-17T05:00:48.843Z,5.97
2022-10-17T05:03:15.516Z,5.43
2022-10-17T05:05:42.669Z,4.40
2022-10-17T05:08:10.666Z,5.97
2022-10-17T05:10:38.547Z,6.22
2022-10-17T05:13:05.548Z,7.35
2022-10-17T05:15:32.317Z,3.97
2022-10-17T05:17:58.893Z,6.00
2022-10-17T05:20:26.141Z,5.70
2022-10-17T05:22:52.720Z,5.43
2022-10-17T05:25:20.072Z,6.95
2022-10-17T05:27:46.735Z,7.22
2022-10-17T05:30:13.310Z,6.80
2022-10-17T05:32:39.936Z,7.13
2022-10-17T05:35:06.925Z,7.20
2022-10-17T05:37:33.555Z,5.28
2022-10-17T05:40:00.225Z,6.20
2022-10-17T05:42:27.272Z,6.72
2022-10-17T05:44:54.138Z,7.55
2022-10-17T05:47:20.616Z,5.32
2022-10-17T05:49:51.513Z,6.78
2022-10-17T05:52:19.153Z,5.60
2022-10-17T05:54:45.788Z,5.70
2022-10-17T05:57:12.253Z,7.00
2022-10-17T05:59:38.820Z,7.15
2022-10-17T06:02:05.397Z,6.60
2022-10-17T06:04:32.326Z,8.40
2022-10-17T06:06:58.829Z,8.70
2022-10-17T06:09:25.311Z,8.15
2022-10-17T06:11:51.783Z,8.15
2022-10-17T06:14:18.519Z,6.85
2022-10-17T06:16:45.136Z,6.85
2022-10-17T06:19:11.640Z,8.37
2022-10-17T06:21:38.228Z,6.35
2022-10-17T06:24:04.774Z,6.55
2022-10-17T06:26:31.264Z,7.07
2022-10-17T06:28:57.921Z,7.43
2022-10-17T06:31:24.599Z,7.17
2022-10-17T06:33:51.148Z,7.57
2022-10-17T06:36:17.732Z,8.73
2022-10-17T06:38:44.363Z,7.10
2022-10-17T06:41:13.491Z,6.68
2022-10-17T06:43:42.215Z,6.57
2022-10-17T06:46:09.141Z,7.65
2022-10-17T06:48:35.617Z,8.45
2022-10-17T06:51:03.289Z,7.38
2022-10-17T06:53:30.934Z,7.32
2022-10-17T06:55:57.780Z,7.50
2022-10-17T06:58:24.409Z,8.45
2022-10-17T07:00:50.966Z,8.57
2022-10-17T07:03:17.533Z,7.88
2022-10-17T07:05:51.595Z,8.30
2022-10-17T07:08:18.129Z,8.13
2022-10-17T07:10:44.645Z,8.45
2022-10-17T07:13:11.433Z,8.38
2022-10-17T07:15:38.624Z,9.00
2022-10-17T07:18:05.641Z,7.57
2022-10-17T07:20:32.279Z,7.37
2022-10-17T07:22:58.790Z,7.28
2022-10-17T07:25:25.302Z,8.43
2022-10-17T07:27:53.090Z,8.45
2022-10-17T07:30:20.349Z,7.05
2022-10-17T07:32:47.312Z,7.00
2022-10-17T07:35:14.488Z,7.45
2022-10-17T07:37:41.273Z,8.50
2022-10-17T07:40:08.631Z,8.00
2022-10-17T07:45:06.676Z,6.30
2022-10-17T07:47:33.356Z,6.00
2022-10-17T07:50:00.025Z,5.53
2022-10-17T07:52:26.738Z,5.78
2022-10-17T07:54:53.331Z,5.28
2022-10-17T07:57:19.836Z,5.70
2022-10-17T07:59:46.325Z,5.68
2022-10-17T08:02:21.205Z,5.72
2022-10-17T08:04:47.665Z,6.43
2022-10-17T08:07:20.958Z,6.03
2022-10-17T08:09:49.960Z,6.53
2022-10-17T08:12:16.636Z,6.20
2022-10-17T08:14:44.028Z,5.38
2022-10-17T08:17:10.765Z,6.43
2022-10-17T08:19:40.700Z,6.35
2022-10-17T08:22:07.977Z,4.90
2022-10-17T08:24:34.765Z,5.82
2022-10-17T08:27:01.420Z,6.10
2022-10-17T08:29:27.930Z,5.82
2022-10-17T08:31:58.668Z,6.32
2022-10-17T08:34:27.509Z,6.47
2022-10-17T08:36:54.092Z,5.03
2022-10-17T08:39:20.697Z,5.28
2022-10-17T08:41:47.125Z,5.85
2022-10-17T08:44:38.045Z,5.85
2022-10-17T08:47:16.555Z,6.03
2022-10-17T08:49:54.620Z,5.60
2022-10-17T08:52:48.951Z,5.57
2022-10-17T08:55:33.358Z,7.47
2022-10-17T08:57:59.956Z,6.53
2022-10-17T09:00:28.640Z,6.63
2022-10-17T09:03:01.129Z,6.68
2022-10-17T09:06:02.879Z,7.68
2022-10-17T09:08:50.415Z,6.18
2022-10-17T09:11:43.431Z,5.63
2022-10-17T09:14:40.210Z,5.83
2022-10-17T09:17:28.468Z,5.57
2022-10-17T09:20:09.241Z,5.55
2022-10-17T09:23:06.742Z,4.90
2022-10-17T09:25:42.569Z,5.53
2022-10-17T09:28:34.832Z,6.77
2022-10-17T09:31:24.308Z,5.78
2022-10-17T09:33:55.374Z,5.15
2022-10-17T09:36:24.946Z,5.47
2022-10-17T09:39:12.842Z,5.53
2022-10-17T09:41:46.518Z,5.70
2022-10-17T09:44:19.890Z,5.88
2022-10-17T09:46:57.697Z,5.30
2022-10-17T09:49:35.877Z,5.95
2022-10-17T09:52:12.071Z,6.05
2022-10-17T09:54:51.321Z,6.60
2022-10-17T09:57:19.680Z,6.53
2022-10-17T10:00:25.514Z,5.90
2022-10-17T10:03:10.911Z,6.45
2022-10-17T10:05:37.529Z,5.78
2022-10-17T10:08:16.315Z,7.65
2022-10-17T10:10:43.833Z,6.47
2022-10-17T10:13:13.031Z,6.53
2022-10-17T10:15:50.241Z,6.78
2022-10-17T10:18:35.931Z,8.13
2022-10-17T10:21:11.893Z,10.23
2022-10-17T10:23:59.752Z,9.05
2022-10-17T10:26:41.564Z,13.85
2022-10-17T10:29:32.633Z,12.13
2022-10-17T10:32:26.144Z,11.18
2022-10-17T10:34:57.574Z,9.07
2022-10-17T10:37:38.637Z,9.68
2022-10-17T10:40:07.160Z,8.82
2022-10-17T10:42:36.912Z,9.45
2022-10-17T10:45:46.505Z,8.30
2022-10-17T10:48:37.947Z,7.57
2022-10-17T10:51:07.073Z,8.15
2022-10-17T10:54:04.558Z,7.28
2022-10-17T10:56:37.711Z,8.35
2022-10-17T10:59:10.086Z,7.93
2022-10-17T11:01:57.839Z,7.10
2022-10-17T11:04:40.052Z,7.63
2022-10-17T11:07:13.441Z,9.27
2022-10-17T11:10:08.590Z,7.90
2022-10-17T11:13:00.522Z,6.10
2022-10-17T11:15:29.883Z,7.22
2022-10-17T11:18:04.243Z,9.02
2022-10-17T11:20:42.027Z,6.82
2022-10-17T11:23:41.434Z,8.15
2022-10-17T11:26:13.232Z,8.73
2022-10-17T11:28:39.855Z,9.35
2022-10-17T11:31:13.504Z,7.93
2022-10-17T11:33:48.621Z,8.63
2022-10-17T11:36:17.891Z,8.15
2022-10-17T11:39:05.481Z,7.13
2022-10-17T11:41:39.716Z,8.48
2022-10-17T11:44:37.909Z,7.47
2022-10-17T11:47:23.195Z,8.57
2022-10-17T11:49:55.834Z,6.55
2022-10-17T11:52:55.843Z,7.90
2022-10-17T11:55:28.578Z,7.53
2022-10-17T11:58:23.113Z,7.55
2022-10-17T12:01:15.166Z,7.18
2022-10-17T12:04:09.624Z,7.28
2022-10-17T12:06:55.803Z,8.32
2022-10-17T12:09:34.344Z,8.10
2022-10-17T12:12:03.616Z,7.55
2022-10-17T12:14:39.007Z,9.88
2022-10-17T12:17:22.912Z,7.72
2022-10-17T12:19:49.443Z,7.55
2022-10-17T12:22:22.476Z,7.18
2022-10-17T12:25:03.147Z,9.10
2022-10-17T12:27:44.499Z,7.88
2022-10-17T12:30:16.874Z,7.43
2022-10-17T12:33:16.285Z,6.82
2022-10-17T12:35:42.909Z,6.40
2022-10-17T12:38:18.295Z,7.28
2022-10-17T12:40:48.587Z,7.20
2022-10-17T12:43:15.418Z,5.75
2022-10-17T12:45:56.445Z,6.30
2022-10-17T12:48:38.451Z,6.95
2022-10-17T12:51:36.384Z,6.03
2022-10-17T12:54:14.561Z,6.45
2022-10-17T12:56:49.645Z,6.72
2022-10-17T12:59:18.145Z,6.43
2022-10-17T13:01:49.516Z,6.85
2022-10-17T13:04:16.776Z,6.55
2022-10-17T13:06:49.153Z,6.05
2022-10-17T13:09:25.222Z,6.43
2022-10-17T13:11:53.242Z,5.28
2022-10-17T13:14:22.258Z,6.45
2022-10-17T13:17:05.228Z,7.15
2022-10-17T13:19:45.787Z,6.43
2022-10-17T13:22:19.469Z,6.30
2022-10-17T13:24:46.525Z,6.82
2022-10-17T13:27:34.607Z,7.70
2022-10-17T13:30:03.500Z,5.30
2022-10-17T13:32:38.643Z,5.90
2022-10-17T13:35:10.808Z,6.78
2022-10-17T13:37:40.037Z,6.60
2022-10-17T13:40:30.720Z,5.88
2022-10-17T13:42:56.452Z,6.03
2022-10-17T13:45:36.814Z,6.38
2022-10-17T13:48:06.180Z,6.10
2022-10-17T13:50:45.791Z,6.93
2022-10-17T13:53:33.649Z,7.50
2022-10-17T13:56:28.282Z,6.93
2022-10-17T13:58:59.604Z,5.70
2022-10-17T14:01:28.469Z,6.65
2022-10-17T14:04:07.618Z,5.40
2022-10-17T14:06:45.042Z,6.07
2022-10-17T14:09:32.868Z,6.00
2022-10-17T14:12:06.513Z,6.55
2022-10-17T14:14:51.648Z,6.43
2022-10-17T14:17:25.211Z,6.65
2022-10-17T14:20:14.191Z,6.55
2022-10-17T14:22:47.050Z,6.75
2022-10-17T14:25:35.449Z,5.93
2022-10-17T14:28:13.436Z,5.88
2022-10-17T14:30:57.666Z,6.55
2022-10-17T14:33:31.162Z,5.38
2022-10-17T14:36:00.079Z,6.28
2022-10-17T14:38:28.595Z,6.05
2022-10-17T14:41:41.340Z,6.35
2022-10-17T14:44:14.894Z,6.18
2022-10-17T14:46:49.716Z,6.30
2022-10-17T14:49:25.219Z,5.97
2022-10-17T14:52:15.140Z,5.22
2022-10-17T14:54:48.789Z,6.35
2022-10-17T14:57:19.095Z,6.35
2022-10-17T14:59:54.589Z,6.03
2022-10-17T15:02:22.217Z,7.05
2022-10-17T15:04:48.735Z,6.18
2022-10-17T15:07:16.390Z,6.47
2022-10-17T15:09:44.034Z,6.60
2022-10-17T15:12:22.105Z,5.85
2022-10-17T15:14:49.009Z,6.18
2022-10-17T15:17:20.305Z,6.47
2022-10-17T15:19:47.833Z,6.72
2022-10-17T15:22:14.492Z,6.63
2022-10-17T15:24:40.980Z,6.20
2022-10-17T15:27:15.945Z,6.72
2022-10-17T15:29:42.560Z,6.63
2022-10-17T15:32:09.675Z,5.88
2022-10-17T15:34:36.579Z,6.32
2022-10-17T15:37:04.556Z,6.30
2022-10-17T15:39:31.140Z,7.43
2022-10-17T15:41:57.719Z,6.97
2022-10-17T15:44:24.296Z,5.60
2022-10-17T15:46:50.775Z,7.05
2022-10-17T15:49:18.725Z,5.82
2022-10-17T15:51:45.543Z,6.00
2022-10-17T15:56:42.248Z,6.97
2022-10-17T15:59:18.434Z,6.38
2022-10-17T16:01:45.169Z,6.60
2022-10-17T16:04:12.605Z,6.28
2022-10-17T16:06:39.321Z,6.10
2022-10-17T16:09:05.819Z,6.63
2022-10-17T16:11:39.727Z,5.68
2022-10-17T16:14:15.729Z,4.07
2022-10-17T16:16:42.639Z,6.57
2022-10-17T16:19:09.492Z,6.30
2022-10-17T16:21:38.931Z,5.35
2022-10-17T16:24:06.239Z,4.72
2022-10-17T16:26:32.931Z,6.57
2022-10-17T16:28:59.644Z,6.43
2022-10-17T16:31:32.958Z,6.00
2022-10-17T16:34:00.791Z,5.68
2022-10-17T16:36:27.536Z,6.03
2022-10-17T16:38:54.045Z,5.70
2022-10-17T16:41:22.289Z,5.95
2022-10-17T16:43:50.805Z,6.03
2022-10-17T16:46:18.489Z,6.30
2022-10-17T16:48:45.973Z,6.85
2022-10-17T16:51:14.480Z,6.40
2022-10-17T16:53:41.523Z,6.45
2022-10-17T16:56:08.239Z,7.35
2022-10-17T16:58:34.875Z,6.60
2022-10-17T17:01:03.399Z,6.53
2022-10-17T17:03:30.134Z,7.75
2022-10-17T17:05:56.668Z,6.25
2022-10-17T17:08:23.169Z,7.35
2022-10-17T17:10:49.665Z,7.30
2022-10-17T17:13:16.778Z,6.47
2022-10-17T17:18:14.849Z,6.40
2022-10-17T17:20:41.401Z,7.85
2022-10-17T17:23:08.268Z,7.20
2022-10-17T17:25:37.065Z,7.82
2022-10-17T17:28:03.745Z,7.38
2022-10-17T17:30:30.220Z,6.55
2022-10-17T17:32:56.834Z,7.00
2022-10-17T17:35:23.514Z,7.25
2022-10-17T17:37:49.985Z,6.65
2022-10-17T17:40:16.517Z,7.65
2022-10-17T17:42:43.053Z,7.00
2022-10-17T17:45:09.944Z,6.75
2022-10-17T17:47:36.445Z,6.28
2022-10-17T17:50:03.665Z,8.85
2022-10-17T17:52:30.473Z,10.35
2022-10-17T17:54:57.045Z,6.63
2022-10-17T17:57:23.581Z,6.78
2022-10-17T17:59:50.044Z,6.93
2022-10-17T18:02:16.687Z,7.75
2022-10-17T18:04:43.304Z,7.40
2022-10-17T18:07:09.752Z,7.75
2022-10-17T18:09:36.223Z,7.47
2022-10-17T18:12:02.793Z,7.57
2022-10-17T18:14:29.269Z,8.15
2022-10-17T18:16:55.733Z,8.00
2022-10-17T18:19:22.301Z,7.20
2022-10-17T18:21:48.794Z,6.55
2022-10-17T18:24:15.308Z,7.85
2022-10-17T18:26:41.920Z,8.13
2022-10-17T18:29:08.391Z,7.20
2022-10-17T18:31:35.267Z,10.65
2022-10-17T18:34:02.563Z,9.45
2022-10-17T18:36:32.039Z,8.90
2022-10-17T18:38:59.968Z,8.68
2022-10-17T18:41:27.624Z,7.93
2022-10-17T18:43:55.384Z,8.65
2022-10-17T18:46:28.403Z,9.82
2022-10-17T18:48:55.326Z,7.07
2022-10-17T18:51:24.864Z,8.88
2022-10-17T18:53:54.004Z,8.45
2022-10-17T18:56:22.052Z,11.95
2022-10-17T18:58:48.690Z,11.07
2022-10-17T19:01:18.371Z,8.38
2022-10-17T19:03:46.505Z,9.02
2022-10-17T19:06:15.281Z,8.68
2022-10-17T19:08:42.941Z,8.65
2022-10-17T19:11:24.875Z,9.10
2022-10-17T19:13:52.636Z,8.63
2022-10-17T19:16:25.388Z,9.38
2022-10-17T19:18:57.887Z,8.73
2022-10-17T19:21:24.704Z,8.18
2022-10-17T19:23:53.358Z,8.35
2022-10-17T19:26:20.765Z,7.72
2022-10-17T19:28:47.707Z,8.82
2022-10-17T19:31:16.989Z,7.53
2022-10-17T19:33:44.859Z,7.95
2022-10-17T19:36:12.772Z,7.22
2022-10-17T19:38:39.869Z,10.45
2022-10-17T19:41:08.303Z,10.15
2022-10-17T19:43:39.685Z,7.68
2022-10-17T19:46:13.418Z,7.90
2022-10-17T19:48:40.108Z,8.05
2022-10-17T19:51:08.789Z,6.75
2022-10-17T19:53:35.407Z,8.13
2022-10-17T19:56:02.334Z,7.55
2022-10-17T19:58:28.863Z,8.75
2022-10-17T20:00:58.504Z,8.07
2022-10-17T20:03:25.318Z,6.88
2022-10-17T20:05:51.959Z,7.88
2022-10-17T20:08:19.140Z,6.85
2022-10-17T20:10:46.094Z,8.30
2022-10-17T20:13:13.871Z,8.15
2022-10-17T20:15:40.961Z,7.32
2022-10-17T20:18:08.783Z,7.90
2022-10-17T20:20:36.503Z,7.85
2022-10-17T20:23:04.204Z,7.68
2022-10-17T20:25:30.987Z,8.48
2022-10-17T20:27:58.212Z,10.05
2022-10-17T20:30:24.838Z,8.50
2022-10-17T20:32:55.115Z,8.57
2022-10-17T20:35:22.473Z,8.68
2022-10-17T20:37:49.084Z,8.65
2022-10-17T20:43:03.909Z,9.15
2022-10-17T20:45:44.167Z,9.13
2022-10-17T20:48:17.667Z,8.10
2022-10-17T20:50:44.579Z,7.85
2022-10-17T20:53:35.376Z,8.55
2022-10-17T20:56:08.646Z,8.30
2022-10-17T20:58:35.925Z,9.00
2022-10-17T21:01:07.961Z,7.82
2022-10-17T21:03:37.851Z,8.55
2022-10-17T21:06:09.343Z,8.48
2022-10-17T21:08:35.932Z,8.18
2022-10-17T21:11:10.327Z,9.23
2022-10-17T21:13:37.345Z,9.25
2022-10-17T21:16:07.711Z,8.75
2022-10-17T21:18:34.242Z,6.40
2022-10-17T21:21:26.743Z,8.70
2022-10-17T21:23:55.612Z,8.23
2022-10-17T21:26:22.514Z,9.10
2022-10-17T21:28:49.322Z,8.20
2022-10-17T21:31:27.004Z,9.38
2022-10-17T21:33:55.960Z,7.63
2022-10-17T21:36:23.827Z,10.00
2022-10-17T21:38:52.244Z,9.65
2022-10-17T21:41:20.609Z,10.93
2022-10-17T21:43:48.199Z,9.85
2022-10-17T21:46:17.061Z,10.88
2022-10-17T21:48:44.612Z,10.27
2022-10-17T21:51:14.596Z,11.82
2022-10-17T21:53:41.835Z,11.23
2022-10-17T21:56:11.847Z,11.57
2022-10-17T21:58:38.562Z,9.77
2022-10-17T22:01:15.950Z,12.38
2022-10-17T22:03:46.777Z,11.95
2022-10-17T22:09:18.379Z,11.93
2022-10-17T22:11:47.971Z,11.95
2022-10-17T22:14:19.580Z,10.45
2022-10-17T22:16:47.401Z,12.35
2022-10-17T22:19:16.661Z,11.77
2022-10-17T22:21:43.128Z,12.40
2022-10-17T22:24:12.518Z,11.93
2022-10-17T22:26:39.697Z,12.23
2022-10-17T22:29:07.730Z,11.57
2022-10-17T22:31:35.554Z,12.15
2022-10-17T22:34:03.555Z,12.38
2022-10-17T22:36:31.722Z,12.98
2022-10-17T22:38:58.176Z,13.20
2022-10-17T22:41:24.756Z,12.82
2022-10-17T22:43:51.228Z,12.90
2022-10-17T22:46:17.689Z,11.77
2022-10-17T22:48:44.583Z,11.57
2022-10-17T22:51:11.689Z,11.27
2022-10-17T22:53:38.365Z,12.93
2022-10-17T22:56:10.989Z,12.13
2022-10-17T22:58:37.886Z,12.18
2022-10-17T23:01:05.660Z,12.18
2022-10-17T23:03:32.864Z,13.60
2022-10-17T23:05:59.909Z,12.98
2022-10-17T23:08:27.108Z,12.85
2022-10-17T23:10:54.256Z,14.63
2022-10-17T23:13:21.023Z,12.63
2022-10-17T23:15:50.690Z,13.15
2022-10-17T23:18:17.430Z,13.60
2022-10-17T23:20:44.112Z,13.43
2022-10-17T23:23:10.587Z,13.02
2022-10-17T23:25:37.190Z,13.80
2022-10-17T23:28:03.784Z,10.43
2022-10-17T23:30:32.039Z,13.57
2022-10-17T23:32:58.639Z,14.05
2022-10-17T23:35:25.233Z,13.10
2022-10-17T23:37:51.741Z,13.48
2022-10-17T23:40:18.311Z,12.50
2022-10-17T23:42:44.755Z,12.30
2022-10-17T23:45:11.665Z,13.57
2022-10-17T23:47:38.370Z,13.07
2022-10-17T23:50:06.641Z,14.43
2022-10-17T23:52:33.188Z,11.00
2022-10-17T23:54:59.705Z,12.40
2022-10-17T23:57:26.337Z,13.32
2022-10-17T23:59:52.788Z,12.57
